Time;durP1;ratioP1;P1;durP2;ratioP2;P2;SDS_P1;SDS_P2;PMS_P1;PMS_P2;Temp;Humidity;BMP_temperature;BMP_pressure;BME280_temperature;BME280_humidity;BME280_pressure;Samples;Min_cycle;Max_cycle;Signal;HPM_P1;HPM_P2
2023/09/10 00:02:03;;;;;;;0.10;0.10;;;;;;;18.75;42.87;101474.78;5029292;28;20374;-81
2023/09/10 00:04:32;;;;;;;0.08;0.08;;;;;;;18.81;42.55;101484.75;5034517;28;20467;-81
2023/09/10 00:06:58;;;;;;;0.20;0.10;;;;;;;18.65;42.73;101490.47;5029986;28;20390;-80
2023/09/10 00:09:24;;;;;;;0.00;0.00;;;;;;;18.16;44.56;101524.63;5045277;28;20444;-80
2023/09/10 00:11:52;;;;;;;0.10;0.10;;;;;;;17.43;46.62;101530.41;5030481;28;20442;-80
2023/09/10 00:14:17;;;;;;;0.00;0.00;;;;;;;17.64;45.78;101497.31;5011877;28;20383;-80
2023/09/10 00:16:44;;;;;;;0.10;0.10;;;;;;;17.74;45.57;101537.19;5029257;28;20394;-79
2023/09/10 00:19:12;;;;;;;0.00;0.00;;;;;;;17.64;45.80;101521.44;5028727;28;20390;-80
2023/09/10 00:21:38;;;;;;;0.20;0.20;;;;;;;17.94;45.02;101500.59;5043953;28;20401;-80
2023/09/10 00:24:05;;;;;;;0.10;0.10;;;;;;;18.20;44.24;101517.00;5028484;28;20386;-80
2023/09/10 00:26:30;;;;;;;0.25;0.10;;;;;;;18.17;44.39;101518.25;5027123;28;20480;-79
2023/09/10 00:28:56;;;;;;;0.03;0.03;;;;;;;18.23;44.31;101522.81;5028337;28;20418;-79
2023/09/10 00:31:21;;;;;;;0.00;0.00;;;;;;;18.33;44.24;101517.06;5028343;28;20382;-79
2023/09/10 00:33:47;;;;;;;0.40;0.20;;;;;;;18.32;44.57;101515.41;5030003;28;20453;-80
2023/09/10 00:36:12;;;;;;;0.20;0.20;;;;;;;18.30;45.30;101510.22;5030175;28;20405;-79
2023/09/10 00:38:38;;;;;;;0.20;0.20;;;;;;;18.34;45.19;101510.66;5030718;28;20800;-80
2023/09/10 00:41:07;;;;;;;0.88;0.40;;;;;;;18.37;45.03;101504.91;5029890;28;20408;-80
2023/09/10 00:43:34;;;;;;;0.35;0.35;;;;;;;18.32;45.87;101508.16;5029915;28;20388;-80
2023/09/10 00:45:59;;;;;;;0.60;0.50;;;;;;;18.31;46.00;101517.28;5028871;28;20816;-80
2023/09/10 00:48:26;;;;;;;0.30;0.30;;;;;;;18.30;45.93;101512.09;5030188;28;20386;-80
2023/09/10 00:50:52;;;;;;;0.17;0.17;;;;;;;18.42;45.66;101502.44;5028966;28;20402;-80
2023/09/10 00:53:20;;;;;;;0.10;0.10;;;;;;;18.46;45.63;101511.72;5027295;28;20406;-80
2023/09/10 00:55:47;;;;;;;0.22;0.22;;;;;;;18.61;45.06;101516.09;4994745;28;20410;-80
2023/09/10 00:58:13;;;;;;;0.82;0.22;;;;;;;18.75;45.11;101514.28;5011173;28;20826;-80
2023/09/10 01:00:43;;;;;;;0.10;0.10;;;;;;;18.82;44.72;101510.59;5027703;28;20397;-80
2023/09/10 01:03:09;;;;;;;0.10;0.10;;;;;;;18.87;44.39;101513.47;5011037;28;20398;-80
2023/09/10 01:05:36;;;;;;;0.10;0.10;;;;;;;18.94;44.21;101520.72;5013328;28;20394;-80
2023/09/10 01:08:05;;;;;;;0.10;0.10;;;;;;;18.94;44.32;101512.66;5014884;28;20829;-80
2023/09/10 01:11:06;;;;;;;0.20;0.20;;;;;;;18.96;44.25;101513.25;5031356;28;20450;-79
2023/09/10 01:13:54;;;;;;;0.20;0.20;;;;;;;18.90;44.33;101518.41;5001286;28;20394;-79
2023/09/10 01:16:44;;;;;;;0.10;0.10;;;;;;;18.89;44.32;101515.97;4998074;28;20410;-80
2023/09/10 01:19:43;;;;;;;0.30;0.30;;;;;;;18.87;44.36;101518.84;5014192;28;20390;-79
2023/09/10 01:22:32;;;;;;;0.10;0.10;;;;;;;18.81;44.36;101513.44;5031605;28;20382;-79
2023/09/10 01:25:00;;;;;;;0.35;0.35;;;;;;;18.75;44.21;101511.59;5032625;28;20923;-78
2023/09/10 01:27:25;;;;;;;0.20;0.20;;;;;;;18.72;44.16;101510.94;5015731;28;20573;-79
2023/09/10 01:29:51;;;;;;;0.28;0.28;;;;;;;18.70;44.00;101514.88;5033220;28;20398;-79
2023/09/10 01:32:55;;;;;;;0.30;0.30;;;;;;;18.56;44.27;101516.69;5033372;28;20386;-80
2023/09/10 01:35:31;;;;;;;0.35;0.35;;;;;;;18.46;44.20;101516.28;4989897;28;20394;-79
2023/09/10 01:38:08;;;;;;;0.10;0.10;;;;;;;18.44;44.32;101512.94;5031439;28;21031;-79
2023/09/10 01:40:39;;;;;;;0.23;0.23;;;;;;;18.40;44.26;101520.59;5031270;28;20452;-78
2023/09/10 01:43:06;;;;;;;0.10;0.10;;;;;;;18.29;44.69;101521.16;5031724;28;20382;-79
2023/09/10 01:45:35;;;;;;;0.38;0.30;;;;;;;18.10;45.25;101525.44;5030498;28;20876;-79
2023/09/10 01:48:02;;;;;;;0.20;0.20;;;;;;;18.09;45.15;101524.59;5031755;28;20383;-79
2023/09/10 01:50:31;;;;;;;0.20;0.20;;;;;;;17.97;45.62;101523.53;5015352;28;20497;-79
2023/09/10 01:53:00;;;;;;;0.30;0.30;;;;;;;17.93;45.97;101532.97;5032441;28;20856;-79
2023/09/10 01:55:26;;;;;;;0.35;0.35;;;;;;;18.01;45.54;101534.69;5048127;28;20501;-79
2023/09/10 01:57:54;;;;;;;0.35;0.35;;;;;;;18.07;45.23;101528.50;5032878;28;20465;-79
2023/09/10 02:00:21;;;;;;;0.30;0.20;;;;;;;18.04;45.50;101540.50;5032658;28;20420;-79
2023/09/10 02:02:46;;;;;;;0.20;0.20;;;;;;;18.01;45.35;101542.75;5032985;28;20394;-79
2023/09/10 02:05:12;;;;;;;0.22;0.22;;;;;;;17.89;45.73;101534.41;5048019;28;20394;-80
2023/09/10 02:07:37;;;;;;;0.10;0.10;;;;;;;17.80;45.78;101530.22;5033268;28;20394;-79
2023/09/10 02:10:03;;;;;;;0.00;0.00;;;;;;;17.67;45.99;101536.31;5032995;28;20383;-79
2023/09/10 02:12:28;;;;;;;0.40;0.40;;;;;;;17.56;46.17;101538.53;5032659;28;20401;-78
2023/09/10 02:14:58;;;;;;;0.40;0.40;;;;;;;17.31;46.84;101535.47;5032335;28;20449;-80
2023/09/10 02:17:24;;;;;;;0.30;0.30;;;;;;;17.19;47.13;101540.50;5047059;28;20467;-78
2023/09/10 02:19:51;;;;;;;0.50;0.50;;;;;;;17.12;47.24;101547.66;5031289;28;20461;-78
2023/09/10 02:22:19;;;;;;;0.10;0.10;;;;;;;17.11;47.07;101548.69;5032233;28;20539;-79
2023/09/10 02:24:50;;;;;;;0.17;0.17;;;;;;;16.81;48.23;101558.66;5029829;28;20537;-79
2023/09/10 02:27:16;;;;;;;0.20;0.20;;;;;;;16.72;48.35;101552.59;5029937;28;20401;-79
2023/09/10 02:29:42;;;;;;;0.40;0.40;;;;;;;16.57;48.66;101557.19;5013435;28;20453;-78
2023/09/10 02:32:08;;;;;;;0.10;0.10;;;;;;;16.48;49.12;101552.97;5013472;28;20789;-79
2023/09/10 02:34:33;;;;;;;0.10;0.10;;;;;;;16.44;49.21;101552.53;5029889;28;20961;-79
2023/09/10 02:36:59;;;;;;;0.10;0.10;;;;;;;16.52;49.11;101557.75;5013348;28;20402;-79
2023/09/10 02:39:26;;;;;;;0.10;0.10;;;;;;;16.67;48.53;101565.72;5029576;28;20386;-80
2023/09/10 02:41:52;;;;;;;0.10;0.10;;;;;;;16.78;47.99;101561.72;5013188;28;20464;-80
2023/09/10 02:44:18;;;;;;;0.10;0.10;;;;;;;16.80;47.97;101559.72;5029458;28;20432;-79
2023/09/10 02:46:44;;;;;;;0.20;0.20;;;;;;;16.85;48.10;101562.66;5029509;28;20402;-80
2023/09/10 02:49:10;;;;;;;0.20;0.20;;;;;;;16.89;47.81;101561.28;5012691;28;20382;-79
2023/09/10 02:51:36;;;;;;;0.20;0.20;;;;;;;16.89;47.86;101560.41;5029323;28;20398;-79
2023/09/10 02:54:01;;;;;;;0.10;0.10;;;;;;;16.90;47.67;101567.44;5029010;28;20410;-78
2023/09/10 02:56:28;;;;;;;0.10;0.10;;;;;;;17.02;47.43;101565.91;5030878;28;20497;-78
2023/09/10 02:58:53;;;;;;;0.10;0.10;;;;;;;17.04;47.20;101561.19;5046965;28;20481;-79
2023/09/10 03:01:19;;;;;;;0.25;0.25;;;;;;;17.00;47.59;101565.28;5030263;28;20808;-78
2023/09/10 03:03:44;;;;;;;0.00;0.00;;;;;;;16.91;47.78;101564.59;5030170;28;20391;-78
2023/09/10 03:06:13;;;;;;;0.00;0.00;;;;;;;16.76;48.44;101582.50;5030742;28;20418;-78
2023/09/10 03:08:39;;;;;;;0.03;0.03;;;;;;;16.64;49.05;101574.16;5031497;28;20445;-79
2023/09/10 03:11:06;;;;;;;0.10;0.10;;;;;;;16.44;49.71;101573.94;5030206;28;20417;-79
2023/09/10 03:13:33;;;;;;;0.10;0.10;;;;;;;16.44;49.44;101584.63;5031514;28;20478;-78
2023/09/10 03:16:00;;;;;;;0.10;0.10;;;;;;;16.42;49.79;101587.50;5030374;28;20402;-80
2023/09/10 03:18:25;;;;;;;0.20;0.20;;;;;;;16.64;48.97;101587.53;5030152;28;20382;-79
2023/09/10 03:20:52;;;;;;;0.00;0.00;;;;;;;16.67;48.94;101589.81;5030382;28;20410;-80
2023/09/10 03:23:18;;;;;;;0.20;0.20;;;;;;;16.67;48.99;101589.00;5046502;28;20395;-79
2023/09/10 03:25:45;;;;;;;0.20;0.20;;;;;;;16.76;48.76;101596.75;5031393;28;20414;-79
2023/09/10 03:28:11;;;;;;;0.10;0.10;;;;;;;16.58;49.26;101598.97;5030440;28;20464;-80
2023/09/10 03:30:36;;;;;;;0.20;0.20;;;;;;;16.51;49.37;101606.09;5031587;28;20771;-80
2023/09/10 03:33:02;;;;;;;0.10;0.10;;;;;;;16.61;49.34;101603.97;5029907;28;20383;-80
2023/09/10 03:35:31;;;;;;;0.10;0.10;;;;;;;16.65;49.21;101609.78;5013421;28;20750;-80
2023/09/10 03:37:58;;;;;;;0.10;0.10;;;;;;;16.46;50.03;101612.03;5031272;28;20437;-79
2023/09/10 03:40:24;;;;;;;0.10;0.10;;;;;;;16.54;49.79;101603.06;5031149;28;20946;-79
2023/09/10 03:42:49;;;;;;;0.30;0.30;;;;;;;16.71;49.44;101601.84;5031106;28;20379;-79
2023/09/10 03:45:15;;;;;;;0.23;0.23;;;;;;;16.66;49.70;101596.22;5030817;28;20378;-80
2023/09/10 03:47:41;;;;;;;0.10;0.10;;;;;;;16.65;50.30;101612.47;5029480;28;20394;-80
2023/09/10 03:50:08;;;;;;;0.20;0.20;;;;;;;16.63;50.21;101615.31;5029597;28;20390;-80
2023/09/10 03:52:34;;;;;;;0.13;0.13;;;;;;;16.65;50.35;101613.28;5030853;28;20382;-79
2023/09/10 03:54:59;;;;;;;0.30;0.30;;;;;;;16.66;50.65;101614.13;5029596;28;20477;-79
2023/09/10 03:57:25;;;;;;;7.60;0.60;;;;;;;16.65;50.68;101607.91;5029460;28;20501;-79
2023/09/10 03:59:51;;;;;;;0.30;0.30;;;;;;;16.63;50.91;101616.13;5030709;28;20424;-79
2023/09/10 04:02:17;;;;;;;0.25;0.25;;;;;;;16.59;51.26;101616.72;5030414;28;20378;-79
2023/09/10 04:04:43;;;;;;;0.20;0.20;;;;;;;16.60;51.42;101623.72;5028981;28;20750;-80
2023/09/10 04:07:09;;;;;;;0.17;0.17;;;;;;;16.61;51.55;101628.06;5028773;28;20402;-78
2023/09/10 04:09:34;;;;;;;0.13;0.13;;;;;;;16.63;51.51;101628.69;5045086;28;20374;-80
2023/09/10 04:12:00;;;;;;;0.20;0.20;;;;;;;16.59;51.88;101620.22;5029555;28;20386;-79
2023/09/10 04:14:26;;;;;;;0.32;0.32;;;;;;;16.47;52.41;101631.59;5033928;28;20821;-81
2023/09/10 04:16:52;;;;;;;0.20;0.20;;;;;;;16.52;52.49;101639.91;5029171;28;20424;-80
2023/09/10 04:19:18;;;;;;;0.10;0.10;;;;;;;16.59;52.74;101636.28;5030371;28;20801;-80
2023/09/10 04:21:45;;;;;;;0.60;0.60;;;;;;;16.65;52.60;101642.72;5029188;28;20413;-80
2023/09/10 04:24:10;;;;;;;0.10;0.10;;;;;;;16.51;53.77;101646.25;5030225;28;20414;-81
2023/09/10 04:26:36;;;;;;;0.22;0.22;;;;;;;16.26;54.82;101641.22;5028900;28;20507;-80
2023/09/10 04:29:02;;;;;;;0.20;0.20;;;;;;;16.40;54.47;101635.03;5012549;28;20386;-80
2023/09/10 04:31:29;;;;;;;0.40;0.40;;;;;;;16.64;53.69;101641.09;5029900;28;20840;-80
2023/09/10 04:33:55;;;;;;;0.40;0.40;;;;;;;16.77;53.45;101638.56;5028859;28;20420;-81
2023/09/10 04:36:20;;;;;;;1.00;0.50;;;;;;;16.87;53.07;101638.31;5030569;28;20414;-80
2023/09/10 04:38:48;;;;;;;0.30;0.30;;;;;;;16.86;53.24;101638.47;5029161;28;20409;-80
2023/09/10 04:41:13;;;;;;;0.13;0.13;;;;;;;16.86;53.45;101650.00;5034892;28;20397;-80
2023/09/10 04:43:39;;;;;;;0.50;0.50;;;;;;;16.80;54.02;101648.91;5052272;28;20382;-80
2023/09/10 04:46:07;;;;;;;0.85;0.85;;;;;;;16.92;53.72;101653.78;5035602;28;20394;-79
2023/09/10 04:48:32;;;;;;;0.20;0.20;;;;;;;17.05;53.21;101642.38;5052084;28;20396;-80
2023/09/10 04:50:58;;;;;;;0.10;0.10;;;;;;;17.15;53.05;101651.75;5035349;28;20472;-82
2023/09/10 04:53:23;;;;;;;0.65;0.50;;;;;;;17.19;52.96;101649.53;5051889;28;20409;-80
2023/09/10 04:55:53;;;;;;;0.20;0.20;;;;;;;17.32;52.68;101651.50;5036489;28;20765;-80
2023/09/10 04:58:19;;;;;;;0.10;0.10;;;;;;;17.27;52.81;101651.25;5035505;28;20941;-80
2023/09/10 05:00:45;;;;;;;0.30;0.30;;;;;;;17.36;52.64;101650.94;5036126;28;20382;-80
2023/09/10 05:03:11;;;;;;;0.20;0.20;;;;;;;17.48;52.43;101659.28;5036183;28;20869;-81
2023/09/10 05:05:37;;;;;;;0.20;0.20;;;;;;;17.49;52.43;101654.78;5034507;28;20396;-79
2023/09/10 05:08:03;;;;;;;0.30;0.30;;;;;;;17.61;52.46;101661.28;5032894;28;20461;-79
2023/09/10 05:10:30;;;;;;;0.17;0.17;;;;;;;17.69;52.29;101657.63;5035000;28;20426;-79
2023/09/10 05:12:56;;;;;;;0.45;0.45;;;;;;;17.77;52.42;101660.13;5017579;28;20418;-80
2023/09/10 05:15:22;;;;;;;0.30;0.30;;;;;;;17.77;52.26;101657.47;5035553;28;20409;-79
2023/09/10 05:17:47;;;;;;;0.40;0.40;;;;;;;17.93;52.11;101667.09;5051951;28;20849;-80
2023/09/10 05:20:14;;;;;;;0.10;0.10;;;;;;;17.94;52.19;101666.09;5051887;28;20385;-79
2023/09/10 05:22:40;;;;;;;0.32;0.32;;;;;;;18.05;51.73;101659.34;5036716;28;20452;-79
2023/09/10 05:25:06;;;;;;;0.17;0.15;;;;;;;18.19;51.51;101668.31;5036447;28;20814;-80
2023/09/10 05:27:32;;;;;;;0.10;0.10;;;;;;;18.24;51.23;101663.16;5036420;28;20397;-79
2023/09/10 05:29:58;;;;;;;0.27;0.27;;;;;;;18.31;51.24;101672.09;5018574;28;20382;-79
2023/09/10 05:32:23;;;;;;;0.70;0.70;;;;;;;18.53;50.75;101673.66;5035030;28;20389;-79
2023/09/10 05:34:49;;;;;;;0.40;0.40;;;;;;;18.55;50.68;101670.78;5036310;28;20438;-79
2023/09/10 05:37:15;;;;;;;1.20;0.80;;;;;;;18.64;50.30;101671.44;5036312;28;20409;-80
2023/09/10 05:39:43;;;;;;;0.50;0.38;;;;;;;18.75;49.92;101675.44;5036103;28;20386;-80
2023/09/10 05:42:09;;;;;;;0.40;0.30;;;;;;;18.86;49.77;101673.00;5051305;28;20404;-79
2023/09/10 05:44:34;;;;;;;0.28;0.28;;;;;;;19.07;49.49;101681.97;5052051;28;20401;-79
2023/09/10 05:47:01;;;;;;;0.95;0.90;;;;;;;19.18;48.98;101683.25;5036480;28;20382;-79
2023/09/10 05:49:26;;;;;;;1.50;1.00;;;;;;;19.22;48.95;101673.72;5036210;28;20401;-81
2023/09/10 05:51:52;;;;;;;0.10;0.10;;;;;;;19.37;48.77;101685.09;5015788;28;20382;-81
2023/09/10 05:54:18;;;;;;;0.40;0.40;;;;;;;19.49;48.53;101671.91;5031484;28;20908;-80
2023/09/10 05:56:44;;;;;;;0.20;0.20;;;;;;;19.56;48.21;101675.41;5032866;28;20402;-80
2023/09/10 05:59:12;;;;;;;0.20;0.20;;;;;;;19.58;48.06;101676.03;5031739;28;20390;-81
2023/09/10 06:01:38;;;;;;;0.43;0.43;;;;;;;19.63;47.78;101678.13;5033351;28;20406;-80
2023/09/10 06:04:03;;;;;;;0.20;0.20;;;;;;;19.72;47.74;101679.56;5015002;28;20761;-81
2023/09/10 06:06:29;;;;;;;0.13;0.13;;;;;;;19.90;47.52;101676.28;5031601;28;20394;-82
2023/09/10 06:08:54;;;;;;;0.20;0.20;;;;;;;20.01;47.50;101686.41;5031444;28;20389;-80
2023/09/10 06:11:20;;;;;;;0.67;0.67;;;;;;;19.90;46.81;101681.66;5026662;28;20390;-81
2023/09/10 06:13:45;;;;;;;1.92;0.60;;;;;;;19.90;46.99;101676.28;5011752;28;20398;-81
2023/09/10 06:16:11;;;;;;;0.30;0.30;;;;;;;20.01;46.69;101674.81;5028838;28;20927;-84
2023/09/10 06:18:36;;;;;;;0.65;0.65;;;;;;;20.20;46.40;101689.25;5034151;28;20391;-83
2023/09/10 06:21:02;;;;;;;0.47;0.47;;;;;;;20.43;45.87;101683.41;5033006;28;20390;-79
2023/09/10 06:23:28;;;;;;;0.60;0.60;;;;;;;20.68;45.77;101691.66;5030134;28;20797;-86
2023/09/10 06:25:53;;;;;;;0.50;0.50;;;;;;;20.93;45.54;101699.00;5030109;28;20401;-86
2023/09/10 06:28:20;;;;;;;0.13;0.13;;;;;;;20.99;45.11;101692.75;5013904;28;20402;-84
2023/09/10 06:30:46;;;;;;;0.10;0.10;;;;;;;21.10;44.66;101686.66;5030410;28;20387;-83
2023/09/10 06:33:16;;;;;;;0.10;0.10;;;;;;;21.23;44.80;101687.63;5013623;28;21028;-83
2023/09/10 06:35:44;;;;;;;0.43;0.43;;;;;;;21.42;44.48;101692.06;5030427;28;20415;-83
2023/09/10 06:38:10;;;;;;;0.10;0.10;;;;;;;21.53;44.18;101696.78;5013300;28;20398;-81
2023/09/10 06:40:38;;;;;;;0.10;0.10;;;;;;;21.63;44.26;101690.91;5029922;28;20397;-82
2023/09/10 06:43:08;;;;;;;0.17;0.17;;;;;;;21.77;43.32;101691.63;5031616;28;20403;-80
2023/09/10 06:45:36;;;;;;;0.08;0.08;;;;;;;21.82;42.68;101686.38;5047155;28;20938;-80
2023/09/10 06:48:02;;;;;;;0.43;0.43;;;;;;;22.07;42.45;101690.94;5047394;28;20395;-80
2023/09/10 06:50:28;;;;;;;0.20;0.20;;;;;;;22.26;40.71;101689.09;5030853;28;20445;-82
2023/09/10 06:52:53;;;;;;;0.50;0.50;;;;;;;22.30;41.17;101687.63;5030483;28;21185;-81
2023/09/10 06:55:19;;;;;;;0.30;0.30;;;;;;;22.48;40.76;101681.38;5028533;28;20813;-81
2023/09/10 06:57:46;;;;;;;0.40;0.40;;;;;;;22.50;39.74;101679.28;5030628;28;20406;-81
2023/09/10 07:00:12;;;;;;;0.20;0.20;;;;;;;22.59;39.22;101696.03;5028683;28;20743;-81
2023/09/10 07:02:37;;;;;;;0.13;0.13;;;;;;;22.63;39.15;101692.63;5030200;28;20398;-81
2023/09/10 07:05:03;;;;;;;0.30;0.30;;;;;;;22.79;38.61;101687.66;5030647;28;20374;-81
2023/09/10 07:07:30;;;;;;;0.10;0.10;;;;;;;22.89;37.89;101694.19;5031039;28;20382;-81
2023/09/10 07:09:55;;;;;;;0.20;0.20;;;;;;;22.96;37.77;101691.38;5028922;28;20391;-80
2023/09/10 07:12:21;;;;;;;0.32;0.17;;;;;;;23.07;37.69;101687.13;5031219;28;20397;-80
2023/09/10 07:14:49;;;;;;;0.10;0.10;;;;;;;23.22;37.47;101684.78;5031572;28;20742;-80
2023/09/10 07:17:14;;;;;;;1.70;0.73;;;;;;;23.32;37.29;101703.19;5031477;28;20916;-81
2023/09/10 07:19:40;;;;;;;0.40;0.40;;;;;;;23.48;37.16;101697.09;5030294;28;20924;-80
2023/09/10 07:22:06;;;;;;;0.20;0.20;;;;;;;23.61;36.83;101697.97;5031237;28;20456;-81
2023/09/10 07:24:32;;;;;;;0.20;0.20;;;;;;;23.58;36.77;101693.00;5030493;28;20386;-81
2023/09/10 07:26:58;;;;;;;0.50;0.50;;;;;;;23.66;36.37;101688.06;5031300;28;20405;-80
2023/09/10 07:29:24;;;;;;;0.22;0.22;;;;;;;23.78;36.50;101692.66;5029914;28;20487;-80
2023/09/10 07:31:50;;;;;;;0.20;0.20;;;;;;;23.90;36.53;101690.81;5032502;28;20406;-80
2023/09/10 07:34:16;;;;;;;0.27;0.27;;;;;;;23.93;36.12;101682.25;5031684;28;20808;-79
2023/09/10 07:36:44;;;;;;;0.28;0.28;;;;;;;24.19;36.04;101690.94;5031631;28;20467;-79
2023/09/10 07:39:09;;;;;;;0.20;0.20;;;;;;;24.35;35.69;101686.66;5031276;28;20394;-80
2023/09/10 07:41:53;;;;;;;0.40;0.40;;;;;;;24.32;35.02;101685.25;5046988;28;20393;-80
2023/09/10 07:44:19;;;;;;;0.25;0.25;;;;;;;24.48;35.20;101680.16;5030078;28;20387;-80
2023/09/10 07:46:44;;;;;;;0.47;0.47;;;;;;;24.52;34.62;101690.25;5031299;28;20389;-79
2023/09/10 07:49:10;;;;;;;0.30;0.30;;;;;;;24.50;34.00;101688.88;5029829;28;20746;-80
2023/09/10 07:51:35;;;;;;;0.27;0.27;;;;;;;24.49;33.88;101677.22;5029413;28;20378;-81
2023/09/10 07:54:01;;;;;;;0.60;0.40;;;;;;;24.52;33.83;101682.13;5031429;28;20406;-78
2023/09/10 07:56:27;;;;;;;0.70;0.70;;;;;;;24.58;33.33;101675.81;5030718;28;20410;-79
2023/09/10 07:58:55;;;;;;;0.40;0.40;;;;;;;24.69;33.39;101684.16;5031131;28;20744;-79
2023/09/10 08:01:20;;;;;;;0.20;0.20;;;;;;;24.79;33.36;101681.63;5031140;28;20428;-79
2023/09/10 08:03:46;;;;;;;0.60;0.60;;;;;;;24.78;33.26;101674.56;5030812;28;20387;-79
2023/09/10 08:06:11;;;;;;;0.20;0.20;;;;;;;24.73;32.86;101675.28;5030956;28;20394;-80
2023/09/10 08:08:37;;;;;;;0.20;0.20;;;;;;;24.86;33.08;101676.88;5029665;28;20485;-79
2023/09/10 08:11:02;;;;;;;0.30;0.30;;;;;;;24.99;33.11;101681.16;5046060;28;20405;-80
2023/09/10 08:13:28;;;;;;;0.17;0.17;;;;;;;24.98;32.93;101677.66;5029697;28;20397;-82
2023/09/10 08:15:53;;;;;;;0.30;0.30;;;;;;;24.86;32.55;101674.16;5028638;28;20878;-80
2023/09/10 08:18:19;;;;;;;0.40;0.40;;;;;;;24.92;32.55;101669.66;5031126;28;20398;-80
2023/09/10 08:20:44;;;;;;;0.30;0.30;;;;;;;25.09;32.40;101669.69;5045948;28;20448;-79
2023/09/10 08:23:13;;;;;;;0.20;0.20;;;;;;;25.18;32.31;101666.34;5045957;28;20461;-80
2023/09/10 08:25:39;;;;;;;0.20;0.20;;;;;;;25.26;32.34;101661.59;5029861;28;20436;-79
2023/09/10 08:28:05;;;;;;;0.10;0.10;;;;;;;25.37;32.21;101666.13;5030617;28;20398;-79
2023/09/10 08:30:31;;;;;;;0.10;0.10;;;;;;;25.55;32.24;101667.78;5029251;28;20445;-79
2023/09/10 08:32:57;;;;;;;0.10;0.10;;;;;;;25.59;31.94;101668.09;5030698;28;20814;-80
2023/09/10 08:35:23;;;;;;;0.30;0.30;;;;;;;25.70;31.89;101664.50;5028301;28;20450;-82
2023/09/10 08:37:49;;;;;;;0.20;0.20;;;;;;;25.79;31.82;101664.91;5027121;28;20406;-83
2023/09/10 08:40:16;;;;;;;0.20;0.20;;;;;;;25.77;31.39;101659.72;5045410;28;20383;-79
2023/09/10 08:42:53;;;;;;;0.20;0.20;;;;;;;25.78;31.65;101655.09;5029144;28;20915;-81
2023/09/10 08:45:18;;;;;;;0.08;0.08;;;;;;;25.93;31.58;101658.88;5029399;28;20398;-79
2023/09/10 08:47:48;;;;;;;0.10;0.10;;;;;;;26.03;31.42;101649.25;5029060;28;20398;-80
2023/09/10 08:50:14;;;;;;;0.20;0.20;;;;;;;26.15;31.58;101649.13;5029448;28;20414;-82
2023/09/10 08:52:45;;;;;;;0.25;0.25;;;;;;;26.12;31.23;101650.44;5029378;28;20386;-79
2023/09/10 08:55:12;;;;;;;0.22;0.22;;;;;;;26.21;31.13;101651.66;5030595;28;20390;-80
2023/09/10 08:57:40;;;;;;;0.20;0.20;;;;;;;26.27;31.00;101647.09;5030149;28;20487;-80
2023/09/10 09:00:10;;;;;;;0.20;0.20;;;;;;;26.32;31.23;101645.25;5029013;28;20382;-81
2023/09/10 09:02:37;;;;;;;0.10;0.10;;;;;;;26.43;30.89;101651.63;5029041;28;20863;-81
2023/09/10 09:05:04;;;;;;;0.17;0.17;;;;;;;26.51;30.67;101640.31;5030143;28;20413;-80
2023/09/10 09:07:34;;;;;;;0.38;0.38;;;;;;;26.62;30.68;101644.00;5028705;28;20470;-80
2023/09/10 09:10:02;;;;;;;0.50;0.50;;;;;;;26.64;30.93;101646.47;5029920;28;20458;-80
2023/09/10 09:12:33;;;;;;;0.20;0.20;;;;;;;26.57;31.22;101637.66;5029844;28;20481;-79
2023/09/10 09:15:01;;;;;;;0.10;0.10;;;;;;;26.60;30.14;101646.13;5045272;28;20393;-81
2023/09/10 09:17:28;;;;;;;0.40;0.40;;;;;;;26.63;30.25;101637.50;5028766;28;20562;-80
2023/09/10 09:19:58;;;;;;;0.20;0.20;;;;;;;26.74;30.00;101640.31;5029163;28;20390;-81
2023/09/10 09:22:29;;;;;;;0.50;0.50;;;;;;;26.95;30.05;101636.72;5028904;28;20873;-80
2023/09/10 09:24:55;;;;;;;0.10;0.10;;;;;;;27.02;29.99;101636.53;5012922;28;20445;-80
2023/09/10 09:27:24;;;;;;;0.50;0.20;;;;;;;27.04;29.79;101637.09;5031893;28;20386;-79
2023/09/10 09:29:51;;;;;;;1.40;0.60;;;;;;;27.09;29.50;101632.50;5016475;28;20394;-80
2023/09/10 09:32:16;;;;;;;0.30;0.30;;;;;;;27.03;28.85;101627.28;5033568;28;20465;-80
2023/09/10 09:34:42;;;;;;;0.20;0.20;;;;;;;27.11;28.79;101628.72;5032563;28;20523;-80
2023/09/10 09:37:07;;;;;;;0.30;0.30;;;;;;;27.16;29.63;101621.41;5033706;28;20421;-80
2023/09/10 09:39:33;;;;;;;0.30;0.30;;;;;;;27.27;28.82;101620.44;5033879;28;20454;-79
2023/09/10 09:41:59;;;;;;;0.20;0.20;;;;;;;27.34;28.24;101613.97;5049008;28;20413;-80
2023/09/10 09:44:25;;;;;;;0.20;0.20;;;;;;;27.35;28.46;101618.31;5033940;28;20382;-79
2023/09/10 09:46:56;;;;;;;0.13;0.13;;;;;;;27.42;28.51;101617.03;5015785;28;21014;-80
2023/09/10 09:49:21;;;;;;;0.30;0.30;;;;;;;27.42;28.16;101603.41;5033690;28;20913;-80
2023/09/10 09:51:47;;;;;;;0.20;0.20;;;;;;;27.52;27.74;101608.09;5033148;28;20382;-80
2023/09/10 09:54:13;;;;;;;0.60;0.60;;;;;;;27.56;27.61;101600.22;5031662;28;20576;-79
2023/09/10 09:56:42;;;;;;;0.20;0.20;;;;;;;27.62;27.82;101605.44;5032063;28;20509;-80
2023/09/10 09:59:10;;;;;;;0.20;0.20;;;;;;;27.60;28.25;101602.16;5032168;28;20402;-81
2023/09/10 10:01:36;;;;;;;0.20;0.20;;;;;;;27.73;28.12;101597.31;5033693;28;20382;-80
2023/09/10 10:04:03;;;;;;;0.40;0.40;;;;;;;27.70;27.79;101593.22;5033411;28;20447;-80
2023/09/10 10:06:28;;;;;;;0.40;0.40;;;;;;;27.73;27.85;101581.81;5015395;28;20390;-79
2023/09/10 10:08:54;;;;;;;0.10;0.10;;;;;;;27.85;28.22;101587.84;5033368;28;20397;-79
2023/09/10 10:11:31;;;;;;;0.20;0.20;;;;;;;27.93;28.03;101572.94;5032744;28;20389;-79
2023/09/10 10:14:00;;;;;;;0.40;0.40;;;;;;;28.00;27.45;101570.78;5032916;28;20458;-80
2023/09/10 10:16:31;;;;;;;0.50;0.50;;;;;;;28.13;27.79;101572.19;5031605;28;20431;-79
2023/09/10 10:18:57;;;;;;;0.93;0.70;;;;;;;28.10;27.56;101561.81;5032717;28;20379;-80
2023/09/10 10:21:23;;;;;;;0.30;0.30;;;;;;;28.17;27.07;101567.84;5032972;28;20398;-79
2023/09/10 10:23:56;;;;;;;0.30;0.30;;;;;;;28.26;27.36;101564.59;5033473;28;20379;-80
2023/09/10 10:26:22;;;;;;;0.40;0.40;;;;;;;28.33;26.70;101565.97;5031988;28;20412;-80
2023/09/10 10:28:51;;;;;;;0.20;0.20;;;;;;;28.37;27.05;101569.00;5031451;28;20809;-80
2023/09/10 10:31:21;;;;;;;0.30;0.30;;;;;;;28.34;26.69;101555.88;5032516;28;20386;-80
2023/09/10 10:33:59;;;;;;;0.90;0.60;;;;;;;28.38;27.12;101563.28;5032333;28;20913;-80
2023/09/10 10:36:34;;;;;;;0.50;0.40;;;;;;;28.35;26.90;101552.88;5016207;28;20417;-80
2023/09/10 10:39:07;;;;;;;0.65;0.65;;;;;;;28.39;27.23;101555.91;5047174;28;20402;-80
2023/09/10 10:41:37;;;;;;;0.52;0.40;;;;;;;28.46;27.27;101548.28;5031714;28;20401;-81
2023/09/10 10:44:20;;;;;;;0.50;0.30;;;;;;;28.59;27.13;101557.88;5031993;28;20398;-80
2023/09/10 10:46:54;;;;;;;0.43;0.30;;;;;;;28.52;26.71;101549.09;5030649;28;20387;-81
2023/09/10 10:49:21;;;;;;;0.70;0.50;;;;;;;28.54;26.32;101555.13;5032005;28;20395;-80
2023/09/10 10:51:51;;;;;;;0.70;0.40;;;;;;;28.47;26.31;101539.03;5014338;28;20460;-80
2023/09/10 10:54:17;;;;;;;0.50;0.50;;;;;;;28.55;26.31;101537.69;5032490;28;20426;-80
2023/09/10 10:56:43;;;;;;;0.60;0.47;;;;;;;28.58;26.16;101527.06;5014394;28;20402;-80
2023/09/10 10:59:09;;;;;;;0.10;0.10;;;;;;;28.73;26.30;101531.69;5014592;28;20394;-81
2023/09/10 11:01:35;;;;;;;0.20;0.20;;;;;;;28.65;26.35;101529.53;5030964;28;20387;-82
2023/09/10 11:04:25;;;;;;;0.30;0.30;;;;;;;28.72;26.33;101527.34;5031822;28;20374;-81
2023/09/10 11:07:16;;;;;;;0.98;0.45;;;;;;;28.73;26.35;101522.69;5014373;28;20431;-81
2023/09/10 11:09:42;;;;;;;0.38;0.38;;;;;;;28.75;26.55;101523.25;5030859;28;20401;-79
2023/09/10 11:12:08;;;;;;;0.20;0.20;;;;;;;28.76;25.94;101514.78;5030564;28;20391;-80
2023/09/10 11:15:00;;;;;;;0.20;0.20;;;;;;;28.83;26.01;101517.25;5031299;28;20387;-81
2023/09/10 11:17:35;;;;;;;0.22;0.22;;;;;;;28.93;25.60;101521.88;5028359;28;20450;-80
2023/09/10 11:20:03;;;;;;;0.20;0.20;;;;;;;28.91;24.80;101513.94;5030919;28;20390;-80
2023/09/10 11:23:08;;;;;;;0.20;0.20;;;;;;;28.93;25.02;101510.94;5031848;28;20394;-81
2023/09/10 11:25:34;;;;;;;0.30;0.30;;;;;;;28.98;25.24;101500.03;5031393;28;20811;-81
2023/09/10 11:28:00;;;;;;;0.20;0.20;;;;;;;29.07;25.43;101500.31;5030522;28;20900;-81